Terminal Aerodrome Forecast
Issued by NWS

Home | Current Version | Previous Version | Text Only | Print | Product List | Glossary On
Versions: 1 2 3 4 5 6 7 8 9 10 11 12 13 14 15 16 17 18 19 20 21 22 23 24 25 26 27 28 29 30 31 32 33 34 35 36 37 38 39
000
FTUS44 KHGX 011507 AAA
TAFUTS
TAF AMD
KUTS 011507Z 0115/0212 21007KT P6SM BKN015 OVC025
     FM011600 27010G16KT P6SM VCSH BKN025
     FM012100 33010G18KT P6SM VCSH BKN015 OVC050
     FM020100 34012G20KT P6SM BKN250
     FM020600 35011KT P6SM SCT250=

USA.gov is the U.S. government's official web portal to all federal, state and local government web resources and services.